Accueil
METAR-TAF:

METAR-TAF

Aéroports :

Aéroport international de Bahreïn

Bahreïn, Bahreïn

latitude: 26-16N, longitude: 050-39E, altitude: 2 m

Observation

Le bulletin a été fait il y a 25 minutes, à 15:30 UTC
Vent 15 kt de ouest/nord-ouest
Température 21°C
Humidité 56%
Pression 1018 hPa
Visibilité 10 km ou plus
pas de nuages en-dessous de 1500 mètres et pas de cumulonimbus.

METAR: OBBI 211530Z 30015KT CAVOK 21/12 Q1018 NOSIG

Heure: 18:55 (15:55 UTC)

Prévision

Le bulletin a été fait il y a 4 heures et 55 minutes, à 11:00 UTC
Prévision valable du 21 à 12 UTC au 22 à 18 UTC
Vent 18 kt de nord/nord-ouest avec des rafales jusqu'à 28 kt
Visibilité 10 km ou plus
Quelques nuages à une hauteur de 3000 ft
Evoluant progressivement
du 21 à 16 UTC au 21 à 18 UTC
Vent 12 kt de nord/nord-ouest

TAF: OBBI 211100Z 2112/2218 33018G28KT 9999 FEW030 BECMG 2116/2118 33012KT

Observations et prévisions météorologiques de plus de 4000 aéroports (messages METAR et TAF).

Les stations disponibles sont représentées par des disques jaunes et rouges sur la carte.

Passer la souris dessus pour voir le nom de la station.

Cliquer dessus pour voir les observations et prévisions météorologiques.

Pour changer de carte: cliquez sur les boutons verts avec une croix noire pour zoomer, sur le bouton vert avec un tiret pour effectuer un zoom arrière, ou sur les flèches vertes pour les cartes adjacentes.


METAR-TAF: